EHGG/GRQ METAR and TAF weather

Enter ICAO airport designator
Station Type Date Time Source
EHGG METAR 2020/07/06 08:55 UTC NOAA

EHGG 060855Z AUTO 26010KT 230V310 9999 NCD 15/11 Q1010 REDZ TEMPO 27015G25KT 6000 SHRA SCT020CB BKN025


Station Type Date Time Source
EHGG Decoded METAR 2020/07/06 08:55 UTC NOAA

Groningen Airport Eelde, Netherlands (EHGG) 53-08N 006-35E 4M
Jul 06, 2020 - 04:55 AM EDT / 2020.07.06 0855 UTC
Wind: from the W (260 degrees) at 12 MPH (10 KT) (direction variable):0
Visibility: greater than 7 mile(s):0
Weather: Cumulonimbus clouds observed
Temperature: 59 F (15 C)
Dew Point: 51 F (11 C)
Relative Humidity: 76%
Pressure (altimeter): 29.83 in. Hg (1010 hPa)
ob: EHGG 060855Z AUTO 26010KT 230V310 9999 NCD 15/11 Q1010 REDZ TEMPO 27015G25KT 6000 SHRA SCT020CB BKN025
cycle: 9

Station Type Date Time Source
EHGG TAF 2020/07/06 06:27 UTC NOAA

TAF EHGG 060516Z 0606/0712 27016KT 9999 SCT035
TEMPO 0606/0615 28015G25KT 4000 SHRA SCT020CB BKN025 PROB30
TEMPO 0607/0613 29018G30KT 2000 TSRA SCT018CB BKN020 PROB30
TEMPO 0615/0621 7000 -SHRA SCT030TCU
BECMG 0616/0618 30014KT
BECMG 0620/0623 25006KT
TEMPO 0710/0712 7000 -SHRA SCT025TCU BKN030

Example: see airport list